createdAt,value
2023-01-22T00:01:18.031Z,6.14
2023-01-22T00:03:47.184Z,6.13
2023-01-22T00:06:16.037Z,6.11
2023-01-22T00:08:44.590Z,6.09
2023-01-22T00:11:14.270Z,6.08
2023-01-22T00:13:42.784Z,6.20
2023-01-22T00:16:14.185Z,6.32
2023-01-22T00:18:42.953Z,6.39
2023-01-22T00:21:12.235Z,6.48
2023-01-22T00:23:40.553Z,6.56
2023-01-22T00:26:12.122Z,6.61
2023-01-22T00:28:42.634Z,6.58
2023-01-22T00:31:12.981Z,6.54
2023-01-22T00:33:42.004Z,6.48
2023-01-22T00:36:13.390Z,6.49
2023-01-22T00:38:41.705Z,6.79
2023-01-22T00:41:10.607Z,6.76
2023-01-22T00:43:40.738Z,6.74
2023-01-22T00:46:12.655Z,6.59
2023-01-22T00:48:41.295Z,6.58
2023-01-22T00:51:10.086Z,6.61
2023-01-22T00:53:38.888Z,6.76
2023-01-22T00:56:08.239Z,7.04
2023-01-22T00:58:36.453Z,6.97
2023-01-22T01:01:05.272Z,6.88
2023-01-22T01:03:36.821Z,6.89
2023-01-22T01:06:07.721Z,7.03
2023-01-22T01:08:37.137Z,7.26
2023-01-22T01:11:07.472Z,7.30
2023-01-22T01:13:38.631Z,7.24
2023-01-22T01:16:09.820Z,7.23
2023-01-22T01:18:39.382Z,7.32
2023-01-22T01:21:07.731Z,7.31
2023-01-22T01:23:36.775Z,7.33
2023-01-22T01:26:07.328Z,7.25
2023-01-22T01:28:37.544Z,7.15
2023-01-22T01:31:07.095Z,7.10
2023-01-22T01:33:35.366Z,7.04
2023-01-22T01:36:07.479Z,7.08
2023-01-22T01:38:35.637Z,7.11
2023-01-22T01:41:03.940Z,7.23
2023-01-22T01:43:32.582Z,7.29
2023-01-22T01:46:04.697Z,7.22
2023-01-22T01:48:36.816Z,7.20
2023-01-22T01:51:11.243Z,7.18
2023-01-22T01:53:40.956Z,7.11
2023-01-22T01:56:12.101Z,7.08
2023-01-22T01:58:43.977Z,7.01
2023-01-22T02:01:15.068Z,7.10
2023-01-22T02:03:43.456Z,7.02
2023-01-22T02:06:15.426Z,7.03
2023-01-22T02:08:48.362Z,6.97
2023-01-22T02:11:17.295Z,6.98
2023-01-22T02:13:51.493Z,6.95
2023-01-22T02:16:19.986Z,7.07
2023-01-22T02:18:48.523Z,6.99
2023-01-22T02:21:32.318Z,7.06
2023-01-22T02:24:00.563Z,7.03
2023-01-22T02:26:28.855Z,7.01
2023-01-22T02:28:56.955Z,7.02
2023-01-22T02:31:25.115Z,7.05
2023-01-22T02:33:53.209Z,7.05
2023-01-22T02:36:21.849Z,7.02
2023-01-22T02:38:51.457Z,7.05
2023-01-22T02:41:19.630Z,7.12
2023-01-22T02:43:47.892Z,7.07
2023-01-22T02:46:16.121Z,7.05
2023-01-22T02:48:44.288Z,7.06
2023-01-22T02:51:12.600Z,7.04
2023-01-22T02:53:43.132Z,7.05
2023-01-22T02:56:13.340Z,7.06
2023-01-22T02:58:41.655Z,7.04
2023-01-22T03:01:19.300Z,7.04
2023-01-22T03:03:47.828Z,7.19
2023-01-22T03:06:16.396Z,7.24
2023-01-22T03:08:44.742Z,7.16
2023-01-22T03:11:14.312Z,7.06
2023-01-22T03:14:00.311Z,7.11
2023-01-22T03:16:45.781Z,7.19
2023-01-22T03:19:31.702Z,7.20
2023-01-22T03:21:59.717Z,7.26
2023-01-22T03:24:27.962Z,7.25
2023-01-22T03:26:57.458Z,7.19
2023-01-22T03:29:25.445Z,7.09
2023-01-22T03:31:53.541Z,7.07
2023-01-22T03:34:22.806Z,7.13
2023-01-22T03:36:50.971Z,7.20
2023-01-22T03:39:19.076Z,7.17
2023-01-22T03:41:47.123Z,7.11
2023-01-22T03:44:16.728Z,7.11
2023-01-22T03:46:44.810Z,7.14
2023-01-22T03:49:15.216Z,7.13
2023-01-22T03:51:43.831Z,7.11
2023-01-22T03:54:12.499Z,7.14
2023-01-22T03:56:41.904Z,7.18
2023-01-22T03:59:10.962Z,7.19
2023-01-22T04:01:40.736Z,7.21
2023-01-22T04:04:08.796Z,7.30
2023-01-22T04:06:37.086Z,7.26
2023-01-22T04:09:05.238Z,7.21
2023-01-22T04:11:33.392Z,7.13
2023-01-22T04:14:01.548Z,7.13
2023-01-22T04:16:29.792Z,7.13
2023-01-22T04:18:59.380Z,7.15
2023-01-22T04:21:27.449Z,7.13
2023-01-22T04:23:56.810Z,7.15
2023-01-22T04:26:25.075Z,7.18
2023-01-22T04:28:53.157Z,7.17
2023-01-22T04:31:21.386Z,7.17
2023-01-22T04:33:49.678Z,7.23
2023-01-22T04:36:19.299Z,7.24
2023-01-22T04:38:47.426Z,7.19
2023-01-22T04:41:15.634Z,7.18
2023-01-22T04:43:43.678Z,7.19
2023-01-22T04:46:11.871Z,7.25
2023-01-22T04:48:40.042Z,7.31
2023-01-22T04:51:08.240Z,7.31
2023-01-22T04:53:37.884Z,7.32
2023-01-22T04:56:06.562Z,7.44
2023-01-22T04:58:34.698Z,7.54
2023-01-22T05:01:02.992Z,7.56
2023-01-22T05:03:31.178Z,7.65
2023-01-22T05:06:03.540Z,7.60
2023-01-22T05:08:31.625Z,7.49
2023-01-22T05:11:03.495Z,7.40
2023-01-22T05:13:31.899Z,7.33
2023-01-22T05:15:59.951Z,7.25
2023-01-22T05:18:28.353Z,7.26
2023-01-22T05:20:56.508Z,7.32
2023-01-22T05:23:24.923Z,7.31
2023-01-22T05:25:53.042Z,7.33
2023-01-22T05:28:22.550Z,7.39
2023-01-22T05:30:50.778Z,7.36
2023-01-22T05:33:19.011Z,7.29
2023-01-22T05:35:47.112Z,7.34
2023-01-22T05:38:15.225Z,7.47
2023-01-22T05:40:43.339Z,7.45
2023-01-22T05:43:11.306Z,7.41
2023-01-22T05:45:40.982Z,7.40
2023-01-22T05:48:09.231Z,7.37
2023-01-22T05:50:37.563Z,7.36
2023-01-22T05:53:05.787Z,7.37
2023-01-22T05:55:34.273Z,7.31
2023-01-22T05:58:03.833Z,7.27
2023-01-22T06:00:33.478Z,7.20
2023-01-22T06:03:03.262Z,7.23
2023-01-22T06:05:31.455Z,7.33
2023-01-22T06:07:59.630Z,7.32
2023-01-22T06:10:27.834Z,7.52
2023-01-22T06:12:55.925Z,7.44
2023-01-22T06:15:23.969Z,7.43
2023-01-22T06:17:52.046Z,7.44
2023-01-22T06:20:21.610Z,7.45
2023-01-22T06:22:52.293Z,7.45
2023-01-22T06:25:20.355Z,7.43
2023-01-22T06:27:48.523Z,7.40
2023-01-22T06:30:17.669Z,7.40
2023-01-22T06:32:45.998Z,7.39
2023-01-22T06:35:14.300Z,7.42
2023-01-22T06:37:43.843Z,7.54
2023-01-22T06:40:12.931Z,7.59
2023-01-22T06:42:41.879Z,7.60
2023-01-22T06:45:11.219Z,7.63
2023-01-22T06:47:39.406Z,7.65
2023-01-22T06:50:07.973Z,7.65
2023-01-22T06:52:36.164Z,7.62
2023-01-22T06:55:06.818Z,7.57
2023-01-22T06:57:34.873Z,7.62
2023-01-22T07:00:03.299Z,7.57
2023-01-22T07:02:31.419Z,7.60
2023-01-22T07:04:59.608Z,7.66
2023-01-22T07:07:27.731Z,7.67
2023-01-22T07:09:55.906Z,7.69
2023-01-22T07:12:25.368Z,7.70
2023-01-22T07:14:53.377Z,7.68
2023-01-22T07:17:21.525Z,7.71
2023-01-22T07:19:49.656Z,7.72
2023-01-22T07:22:17.744Z,7.76
2023-01-22T07:24:45.943Z,7.85
2023-01-22T07:27:14.052Z,7.89
2023-01-22T07:29:43.720Z,7.87
2023-01-22T07:32:12.155Z,7.89
2023-01-22T07:34:40.600Z,7.93
2023-01-22T07:37:09.120Z,7.97
2023-01-22T07:39:37.259Z,8.22
2023-01-22T07:42:05.402Z,8.34
2023-01-22T07:44:33.563Z,8.54
2023-01-22T07:47:02.953Z,8.60
2023-01-22T07:49:31.080Z,8.48
2023-01-22T07:51:59.171Z,8.48
2023-01-22T07:54:27.284Z,8.69
2023-01-22T07:56:55.882Z,8.76
2023-01-22T07:59:24.155Z,8.84
2023-01-22T08:01:52.440Z,8.89
2023-01-22T08:04:22.165Z,8.59
2023-01-22T08:06:50.248Z,8.43
2023-01-22T08:09:24.854Z,8.53
2023-01-22T08:11:53.545Z,8.52
2023-01-22T08:14:21.596Z,8.55
2023-01-22T08:16:49.742Z,8.42
2023-01-22T08:19:17.790Z,8.46
2023-01-22T08:21:47.331Z,8.61
2023-01-22T08:24:15.509Z,8.54
2023-01-22T08:26:45.592Z,8.56
2023-01-22T08:29:13.705Z,8.64
2023-01-22T08:31:42.148Z,8.96
2023-01-22T08:34:10.881Z,8.89
2023-01-22T08:36:39.804Z,8.87
2023-01-22T08:39:10.759Z,8.96
2023-01-22T08:41:39.034Z,8.97
2023-01-22T08:44:07.627Z,8.94
2023-01-22T08:46:36.037Z,9.04
2023-01-22T08:49:04.456Z,9.21
2023-01-22T08:51:33.194Z,9.28
2023-01-22T08:54:01.342Z,9.32
2023-01-22T08:56:30.842Z,9.43
2023-01-22T08:59:06.498Z,9.40
2023-01-22T09:01:35.943Z,9.52
2023-01-22T09:04:06.689Z,9.59
2023-01-22T09:06:34.741Z,9.62
2023-01-22T09:09:02.877Z,9.50
2023-01-22T09:11:32.807Z,9.66
2023-01-22T09:14:01.197Z,9.71
2023-01-22T09:16:29.299Z,10.05
2023-01-22T09:18:57.447Z,10.20
2023-01-22T09:21:25.607Z,10.29
2023-01-22T09:23:53.786Z,10.46
2023-01-22T09:26:22.020Z,10.45
2023-01-22T09:28:51.796Z,10.37
2023-01-22T09:31:20.270Z,10.41
2023-01-22T09:33:48.390Z,10.43
2023-01-22T09:36:17.724Z,10.52
2023-01-22T09:38:46.289Z,10.35
2023-01-22T09:41:21.947Z,10.31
2023-01-22T09:43:55.232Z,10.70
2023-01-22T09:46:28.734Z,10.81
2023-01-22T09:49:04.116Z,10.34
2023-01-22T09:51:32.260Z,10.26
2023-01-22T09:54:03.317Z,10.25
2023-01-22T09:56:38.024Z,10.30
2023-01-22T09:59:09.000Z,10.16
2023-01-22T10:01:38.447Z,10.29
2023-01-22T10:04:15.585Z,10.16
2023-01-22T10:06:46.224Z,10.15
2023-01-22T10:09:18.372Z,10.26
2023-01-22T10:11:50.814Z,10.40
2023-01-22T10:14:23.764Z,10.37
2023-01-22T10:16:52.580Z,10.42
2023-01-22T10:19:26.157Z,10.57
2023-01-22T10:21:58.694Z,10.54
2023-01-22T10:24:26.877Z,10.90
2023-01-22T10:26:58.968Z,11.06
2023-01-22T10:29:33.097Z,10.92
2023-01-22T10:32:02.733Z,10.80
2023-01-22T10:34:34.371Z,10.83
2023-01-22T10:37:04.691Z,10.88
2023-01-22T10:39:42.208Z,10.97
2023-01-22T10:42:17.285Z,10.93
2023-01-22T10:44:47.259Z,11.08
2023-01-22T10:47:21.025Z,11.11
2023-01-22T10:49:50.957Z,11.09
2023-01-22T10:52:24.875Z,11.15
2023-01-22T10:54:56.527Z,11.09
2023-01-22T10:57:33.600Z,10.96
2023-01-22T11:00:21.314Z,10.80
2023-01-22T11:02:51.512Z,10.89
2023-01-22T11:05:21.136Z,10.82
2023-01-22T11:07:52.432Z,10.88
2023-01-22T11:10:24.643Z,10.74
2023-01-22T11:12:58.732Z,10.81
2023-01-22T11:15:37.091Z,10.99
2023-01-22T11:18:08.484Z,11.07
2023-01-22T11:20:46.685Z,11.01
2023-01-22T11:23:21.948Z,11.08
2023-01-22T11:26:04.568Z,11.41
2023-01-22T11:28:43.564Z,11.29
2023-01-22T11:31:52.511Z,11.02
2023-01-22T11:34:37.391Z,11.09
2023-01-22T11:37:12.897Z,11.04
2023-01-22T11:40:06.219Z,11.21
2023-01-22T11:42:49.575Z,11.47
2023-01-22T11:45:50.652Z,11.52
2023-01-22T11:48:35.113Z,11.64
2023-01-22T11:51:12.379Z,11.63
2023-01-22T11:53:57.500Z,11.70
2023-01-22T11:56:43.897Z,11.70
2023-01-22T11:59:19.803Z,11.60
2023-01-22T12:02:03.087Z,11.66
2023-01-22T12:05:14.445Z,11.70
2023-01-22T12:08:01.481Z,11.70
2023-01-22T12:10:55.874Z,11.75
2023-01-22T12:13:47.265Z,11.69
2023-01-22T12:16:23.090Z,11.65
2023-01-22T12:19:25.683Z,11.70
2023-01-22T12:22:02.499Z,11.79
2023-01-22T12:24:36.736Z,11.70
2023-01-22T12:27:10.734Z,11.70
2023-01-22T12:29:44.555Z,11.76
2023-01-22T12:32:15.535Z,11.66
2023-01-22T12:34:49.771Z,11.64
2023-01-22T12:37:37.362Z,11.68
2023-01-22T12:40:26.681Z,11.72
2023-01-22T12:43:02.136Z,11.67
2023-01-22T12:45:41.652Z,11.70
2023-01-22T12:48:20.704Z,11.64
2023-01-22T12:50:54.738Z,11.49
2023-01-22T12:53:30.289Z,11.57
2023-01-22T12:56:02.251Z,11.51
2023-01-22T12:58:32.442Z,11.47
2023-01-22T13:01:03.260Z,11.38
2023-01-22T13:03:32.969Z,11.36
2023-01-22T13:06:03.267Z,11.32
2023-01-22T13:08:42.279Z,11.33
2023-01-22T13:11:14.352Z,11.44
2023-01-22T13:13:48.212Z,11.52
2023-01-22T13:16:22.389Z,11.63
2023-01-22T13:18:52.438Z,11.63
2023-01-22T13:21:28.411Z,11.65
2023-01-22T13:24:03.293Z,11.91
2023-01-22T13:26:34.454Z,12.00
2023-01-22T13:29:06.426Z,11.88
2023-01-22T13:31:34.924Z,11.90
2023-01-22T13:34:09.133Z,11.94
2023-01-22T13:36:39.947Z,11.84
2023-01-22T13:39:20.493Z,11.64
2023-01-22T13:41:52.435Z,11.65
2023-01-22T13:44:24.063Z,11.63
2023-01-22T13:46:53.125Z,11.51
2023-01-22T13:49:25.297Z,11.59
2023-01-22T13:51:54.529Z,11.39
2023-01-22T13:54:29.449Z,11.14
2023-01-22T13:56:57.687Z,11.06
2023-01-22T13:59:27.816Z,10.93
2023-01-22T14:01:55.952Z,10.91
2023-01-22T14:04:38.962Z,10.89
2023-01-22T14:07:07.728Z,11.04
2023-01-22T14:09:40.555Z,11.26
2023-01-22T14:12:16.701Z,11.16
2023-01-22T14:14:45.646Z,11.06
2023-01-22T14:17:25.036Z,11.03
2023-01-22T14:19:53.425Z,10.99
2023-01-22T14:22:22.483Z,10.93
2023-01-22T14:24:52.792Z,10.98
2023-01-22T14:27:22.393Z,10.94
2023-01-22T14:29:50.500Z,11.04
2023-01-22T14:32:18.615Z,11.16
2023-01-22T14:34:46.945Z,11.21
2023-01-22T14:37:17.039Z,11.05
2023-01-22T14:39:45.156Z,10.79
2023-01-22T14:42:14.793Z,10.62
2023-01-22T14:44:43.052Z,10.69
2023-01-22T14:47:11.336Z,10.80
2023-01-22T14:49:41.070Z,10.84
2023-01-22T14:52:09.334Z,10.93
2023-01-22T14:54:37.556Z,10.99
2023-01-22T14:57:05.978Z,11.02
2023-01-22T14:59:35.600Z,11.05
2023-01-22T15:02:03.792Z,10.90
2023-01-22T15:04:31.884Z,10.97
2023-01-22T15:07:00.311Z,10.94
2023-01-22T15:09:28.572Z,10.86
2023-01-22T15:11:56.766Z,10.94
2023-01-22T15:14:25.361Z,10.97
2023-01-22T15:16:54.847Z,11.05
2023-01-22T15:19:22.993Z,11.02
2023-01-22T15:21:51.130Z,10.96
2023-01-22T15:24:19.302Z,11.06
2023-01-22T15:26:47.462Z,11.07
2023-01-22T15:29:15.948Z,11.15
2023-01-22T15:31:44.132Z,10.96
2023-01-22T15:34:13.888Z,10.97
2023-01-22T15:36:43.419Z,10.94
2023-01-22T15:39:11.554Z,10.84
2023-01-22T15:41:39.939Z,10.71
2023-01-22T15:44:08.537Z,10.75
2023-01-22T15:46:38.985Z,10.67
2023-01-22T15:49:09.022Z,10.67
2023-01-22T15:51:38.622Z,10.72
2023-01-22T15:54:08.116Z,10.65
2023-01-22T15:56:38.381Z,10.67
2023-01-22T15:59:06.946Z,10.65
2023-01-22T16:01:35.220Z,10.64
2023-01-22T16:04:04.149Z,10.60
2023-01-22T16:06:34.746Z,10.59
2023-01-22T16:09:06.371Z,10.44
2023-01-22T16:11:35.779Z,10.45
2023-01-22T16:14:03.997Z,10.45
2023-01-22T16:16:36.509Z,10.51
2023-01-22T16:19:06.928Z,10.51
2023-01-22T16:21:35.594Z,10.39
2023-01-22T16:24:06.384Z,10.34
2023-01-22T16:26:36.226Z,10.47
2023-01-22T16:29:06.694Z,10.34
2023-01-22T16:31:36.151Z,10.38
2023-01-22T16:34:10.096Z,10.44
2023-01-22T16:36:38.788Z,10.36
2023-01-22T16:39:09.282Z,10.19
2023-01-22T16:41:38.403Z,10.10
2023-01-22T16:44:09.580Z,10.02
2023-01-22T16:46:39.639Z,10.06
2023-01-22T16:49:11.564Z,10.05
2023-01-22T16:51:41.876Z,10.17
2023-01-22T16:54:17.481Z,10.04
2023-01-22T16:56:45.790Z,10.37
2023-01-22T16:59:14.037Z,10.22
2023-01-22T17:01:42.983Z,10.11
2023-01-22T17:04:11.241Z,9.99
2023-01-22T17:06:42.008Z,9.89
2023-01-22T17:09:15.540Z,9.85
2023-01-22T17:11:47.232Z,9.89
2023-01-22T17:14:18.510Z,9.72
2023-01-22T17:16:47.190Z,9.64
2023-01-22T17:19:15.724Z,9.62
2023-01-22T17:21:44.010Z,9.67
2023-01-22T17:24:14.576Z,9.79
2023-01-22T17:26:43.336Z,9.88
2023-01-22T17:29:12.020Z,9.85
2023-01-22T17:31:40.821Z,10.03
2023-01-22T17:34:11.134Z,9.88
2023-01-22T17:36:40.096Z,9.98
2023-01-22T17:39:08.624Z,9.98
2023-01-22T17:41:38.154Z,9.82
2023-01-22T17:44:07.107Z,9.58
2023-01-22T17:46:35.818Z,9.45
2023-01-22T17:49:04.771Z,9.41
2023-01-22T17:51:34.861Z,9.31
2023-01-22T17:54:06.291Z,9.24
2023-01-22T17:56:36.624Z,9.22
2023-01-22T17:59:08.116Z,9.14
2023-01-22T18:01:39.006Z,9.12
2023-01-22T18:04:10.199Z,9.12
2023-01-22T18:06:40.625Z,9.03
2023-01-22T18:09:11.894Z,9.04
2023-01-22T18:11:43.180Z,9.03
2023-01-22T18:14:18.272Z,8.99
2023-01-22T18:16:48.349Z,8.97
2023-01-22T18:19:19.892Z,8.94
2023-01-22T18:21:51.581Z,8.87
2023-01-22T18:24:25.522Z,8.83
2023-01-22T18:27:01.544Z,8.78
2023-01-22T18:29:33.859Z,8.86
2023-01-22T18:32:09.081Z,8.84
2023-01-22T18:34:40.234Z,8.96
2023-01-22T18:37:11.883Z,8.93
2023-01-22T18:39:43.313Z,8.77
2023-01-22T18:42:13.407Z,8.68
2023-01-22T18:44:46.585Z,8.58
2023-01-22T18:47:20.990Z,8.57
2023-01-22T18:49:53.241Z,8.66
2023-01-22T18:52:24.336Z,8.59
2023-01-22T18:54:55.165Z,8.52
2023-01-22T18:57:46.190Z,8.43
2023-01-22T19:00:16.441Z,8.37
2023-01-22T19:02:44.631Z,8.33
2023-01-22T19:05:12.805Z,8.29
2023-01-22T19:07:40.941Z,8.22
2023-01-22T19:10:09.752Z,8.22
2023-01-22T19:12:37.987Z,8.15
2023-01-22T19:15:07.110Z,8.09
2023-01-22T19:17:36.772Z,8.08
2023-01-22T19:20:08.608Z,8.12
2023-01-22T19:22:36.893Z,8.20
2023-01-22T19:25:06.916Z,8.38
2023-01-22T19:27:34.933Z,8.35
2023-01-22T19:30:03.391Z,8.43
2023-01-22T19:32:35.118Z,8.47
2023-01-22T19:35:06.118Z,8.33
2023-01-22T19:37:34.799Z,8.17
2023-01-22T19:40:03.152Z,8.07
2023-01-22T19:42:31.412Z,7.96
2023-01-22T19:44:59.649Z,7.90
2023-01-22T19:47:28.462Z,7.88
2023-01-22T19:49:56.649Z,7.87
2023-01-22T19:52:28.091Z,7.86
2023-01-22T19:54:56.152Z,7.80
2023-01-22T19:57:24.894Z,7.76
2023-01-22T19:59:57.300Z,7.79
2023-01-22T20:02:25.512Z,7.80
2023-01-22T20:04:54.196Z,7.86
2023-01-22T20:07:22.795Z,7.81
2023-01-22T20:09:54.338Z,7.78
2023-01-22T20:12:23.288Z,7.98
2023-01-22T20:14:51.417Z,7.88
2023-01-22T20:17:19.477Z,7.83
2023-01-22T20:19:47.599Z,7.85
2023-01-22T20:22:15.990Z,7.93
2023-01-22T20:24:44.240Z,7.87
2023-01-22T20:27:13.743Z,7.92
2023-01-22T20:29:42.047Z,7.82
2023-01-22T20:32:10.151Z,7.75
2023-01-22T20:34:38.251Z,7.74
2023-01-22T20:37:06.476Z,7.71
2023-01-22T20:39:34.737Z,7.68
2023-01-22T20:42:02.941Z,7.59
2023-01-22T20:44:35.432Z,7.53
2023-01-22T20:47:03.623Z,7.46
2023-01-22T20:49:33.396Z,7.37
2023-01-22T20:52:01.888Z,7.36
2023-01-22T20:54:30.484Z,7.32
2023-01-22T20:56:58.739Z,7.23
2023-01-22T20:59:28.549Z,7.16
2023-01-22T21:01:58.978Z,7.17
2023-01-22T21:04:27.159Z,7.08
2023-01-22T21:06:56.657Z,7.01
2023-01-22T21:09:24.837Z,6.93
2023-01-22T21:11:52.898Z,6.87
2023-01-22T21:14:21.696Z,6.83
2023-01-22T21:16:49.884Z,6.75
2023-01-22T21:19:23.753Z,6.67
2023-01-22T21:21:52.579Z,6.75
2023-01-22T21:24:21.361Z,6.77
2023-01-22T21:26:49.497Z,6.66
2023-01-22T21:29:19.432Z,6.65
2023-01-22T21:31:52.300Z,6.62
2023-01-22T21:34:24.625Z,6.67
2023-01-22T21:36:54.779Z,6.72
2023-01-22T21:39:25.163Z,6.71
2023-01-22T21:42:13.731Z,6.65
2023-01-22T21:44:59.269Z,6.72
2023-01-22T21:47:27.581Z,6.68
2023-01-22T21:49:57.173Z,6.72
2023-01-22T21:52:26.397Z,6.86
2023-01-22T21:54:54.524Z,6.93
2023-01-22T21:57:22.595Z,7.01
2023-01-22T21:59:50.801Z,7.07
2023-01-22T22:02:20.604Z,7.16
2023-01-22T22:04:48.946Z,7.21
2023-01-22T22:07:18.962Z,7.23
2023-01-22T22:09:47.158Z,7.20
2023-01-22T22:12:15.232Z,7.16
2023-01-22T22:14:43.528Z,7.33
2023-01-22T22:17:11.901Z,7.38
2023-01-22T22:19:40.157Z,7.36
2023-01-22T22:22:08.418Z,7.30
2023-01-22T22:24:38.027Z,7.42
2023-01-22T22:27:06.055Z,7.37
2023-01-22T22:29:34.153Z,7.34
2023-01-22T22:32:02.262Z,7.44
2023-01-22T22:34:30.415Z,7.53
2023-01-22T22:36:58.460Z,7.60
2023-01-22T22:39:26.582Z,7.69
2023-01-22T22:41:56.013Z,7.82
2023-01-22T22:44:24.089Z,7.83
2023-01-22T22:46:52.189Z,7.85
2023-01-22T22:49:20.408Z,7.91
2023-01-22T22:51:48.517Z,7.99
2023-01-22T22:54:17.972Z,8.11
2023-01-22T22:56:46.866Z,8.18
2023-01-22T22:59:18.732Z,8.13
2023-01-22T23:01:46.783Z,8.14
2023-01-22T23:04:14.904Z,8.14
2023-01-22T23:06:45.318Z,8.11
2023-01-22T23:09:15.343Z,8.07
2023-01-22T23:11:43.905Z,8.04
2023-01-22T23:14:19.672Z,8.11
2023-01-22T23:16:50.098Z,8.12
2023-01-22T23:19:19.830Z,8.13
2023-01-22T23:21:50.776Z,8.05
2023-01-22T23:24:19.026Z,8.15
2023-01-22T23:26:47.792Z,8.21
2023-01-22T23:29:18.284Z,8.27
2023-01-22T23:31:48.345Z,8.27
2023-01-22T23:34:19.276Z,8.24
2023-01-22T23:36:48.634Z,8.21
2023-01-22T23:39:18.847Z,8.24
2023-01-22T23:41:47.140Z,8.29
2023-01-22T23:44:15.891Z,8.25
2023-01-22T23:46:45.220Z,8.27
2023-01-22T23:49:14.917Z,8.34
2023-01-22T23:51:44.789Z,8.31
2023-01-22T23:54:13.045Z,8.32
2023-01-22T23:56:41.131Z,8.24
2023-01-22T23:59:10.389Z,8.20
